Time;durP1;ratioP1;P1;durP2;ratioP2;P2;SDS_P1;SDS_P2;PMS_P1;PMS_P2;Temp;Humidity;BMP_temperature;BMP_pressure;BME280_temperature;BME280_humidity;BME280_pressure;Samples;Min_cycle;Max_cycle;Signal;HPM_P1;HPM_P2
2022/10/23 00:00:56;;;;;;;8.52;6.43;;;;;;;21.59;44.70;95393.09;5044056;28;19954;-63
2022/10/23 00:03:22;;;;;;;7.55;6.57;;;;;;;21.67;44.95;95410.41;5030048;28;20049;-62
2022/10/23 00:05:47;;;;;;;8.32;6.25;;;;;;;21.83;44.70;95445.09;5061351;28;20059;-63
2022/10/23 00:08:12;;;;;;;7.93;6.40;;;;;;;20.52;44.76;95221.69;5052044;28;20041;-63
2022/10/23 00:10:40;;;;;;;8.85;6.97;;;;;;;21.79;44.74;95469.03;5049411;28;20044;-64
2022/10/23 00:13:05;;;;;;;8.27;6.65;;;;;;;21.75;44.83;95414.13;5039381;28;20036;-64
2022/10/23 00:15:31;;;;;;;7.55;6.35;;;;;;;21.75;44.92;95405.97;5034000;28;20065;-61
2022/10/23 00:17:56;;;;;;;8.50;6.43;;;;;;;21.79;44.77;95417.38;5013121;28;20053;-62
2022/10/23 00:20:22;;;;;;;9.07;6.60;;;;;;;21.77;44.88;95417.13;5024250;28;20047;-62
2022/10/23 00:22:47;;;;;;;7.75;6.72;;;;;;;21.79;44.77;95411.94;5027969;28;20053;-64
2022/10/23 00:25:13;;;;;;;7.35;6.20;;;;;;;21.73;44.59;95386.72;5026975;28;20037;-63
2022/10/23 00:27:38;;;;;;;8.40;7.20;;;;;;;21.75;44.35;95389.66;5059170;28;20048;-64
2022/10/23 00:30:04;;;;;;;7.43;6.13;;;;;;;21.76;44.87;95400.06;5060846;28;20047;-64
2022/10/23 00:32:30;;;;;;;8.38;6.85;;;;;;;20.42;44.76;95206.88;5032799;28;20045;-62
2022/10/23 00:34:55;;;;;;;8.57;6.80;;;;;;;21.76;44.90;95408.22;5054869;28;20095;-63
2022/10/23 00:37:21;;;;;;;7.78;6.45;;;;;;;21.62;45.00;95397.53;5060993;28;20040;-62
2022/10/23 00:39:46;;;;;;;7.93;6.53;;;;;;;20.10;44.51;95175.63;5038717;28;20041;-63
2022/10/23 00:42:16;;;;;;;8.85;6.40;;;;;;;21.70;44.90;95417.59;5053187;28;20041;-61
2022/10/23 00:44:41;;;;;;;7.65;6.68;;;;;;;21.75;44.76;95411.41;5025640;28;20053;-63
2022/10/23 00:47:06;;;;;;;7.63;6.32;;;;;;;21.74;44.90;95401.78;5043067;28;20052;-64
2022/10/23 00:49:32;;;;;;;7.60;6.60;;;;;;;21.73;44.68;95403.03;5040906;28;20059;-61
2022/10/23 00:52:03;;;;;;;7.53;6.43;;;;;;;21.63;44.99;95388.16;5039190;28;20036;-65
2022/10/23 00:54:31;;;;;;;7.28;6.05;;;;;;;21.73;44.71;95408.47;5022334;28;20057;-64
2022/10/23 00:56:58;;;;;;;7.75;6.47;;;;;;;21.73;44.98;95411.19;5021672;28;20407;-63
2022/10/23 00:59:24;;;;;;;9.43;6.65;;;;;;;21.67;44.96;95394.09;5039556;28;20053;-64
2022/10/23 01:01:49;;;;;;;7.30;6.20;;;;;;;20.99;44.85;95298.47;5021312;28;20402;-63
2022/10/23 01:04:15;;;;;;;7.85;6.43;;;;;;;21.72;44.91;95385.22;5040965;28;20068;-64
2022/10/23 01:06:42;;;;;;;8.27;6.40;;;;;;;21.72;44.44;95390.66;5022180;28;20070;-62
2022/10/23 01:09:32;;;;;;;8.27;6.82;;;;;;;21.71;45.14;95389.91;5034737;28;20060;-65
2022/10/23 01:12:18;;;;;;;7.15;6.25;;;;;;;21.71;44.87;95394.63;5039040;28;20077;-63
2022/10/23 01:15:07;;;;;;;7.95;6.80;;;;;;;21.69;45.04;95407.97;5040118;28;20041;-63
2022/10/23 01:17:41;;;;;;;7.95;6.25;;;;;;;21.69;44.90;95418.84;5011222;28;20041;-63
2022/10/23 01:20:17;;;;;;;7.20;6.32;;;;;;;20.96;45.09;95325.09;5053357;28;20052;-63
2022/10/23 01:22:49;;;;;;;7.47;6.38;;;;;;;21.65;45.09;95445.50;5038168;28;20144;-64
2022/10/23 01:25:45;;;;;;;8.40;6.57;;;;;;;20.56;44.78;95276.47;5038967;28;20040;-63
2022/10/23 01:28:14;;;;;;;9.10;6.80;;;;;;;21.65;44.84;95450.94;5040744;28;20039;-64
2022/10/23 01:30:41;;;;;;;7.90;6.47;;;;;;;21.38;44.95;95410.75;5038213;28;20762;-63
2022/10/23 01:33:12;;;;;;;9.15;6.68;;;;;;;21.64;45.10;95476.59;5021314;28;20215;-63
2022/10/23 01:35:45;;;;;;;8.35;7.00;;;;;;;21.62;45.00;95473.63;5039179;28;20041;-64
2022/10/23 01:38:17;;;;;;;9.13;6.97;;;;;;;21.64;44.91;95487.47;5025520;28;20080;-62
2022/10/23 01:40:47;;;;;;;7.50;6.38;;;;;;;21.66;44.97;95495.91;5024756;28;20123;-63
2022/10/23 01:43:16;;;;;;;8.23;6.57;;;;;;;19.36;44.87;95140.03;5025479;28;20036;-63
2022/10/23 01:45:43;;;;;;;8.75;6.80;;;;;;;21.65;44.83;95488.97;5041963;28;20063;-64
2022/10/23 01:48:10;;;;;;;7.90;6.50;;;;;;;21.66;44.99;95514.94;5057988;28;20044;-64
2022/10/23 01:50:37;;;;;;;7.28;6.47;;;;;;;20.46;44.95;95305.00;5024803;28;20036;-65
2022/10/23 01:53:03;;;;;;;8.52;6.53;;;;;;;21.56;44.85;95481.03;5024151;28;20071;-64
2022/10/23 01:55:28;;;;;;;8.23;6.85;;;;;;;21.65;45.07;95464.53;5024974;28;20072;-64
2022/10/23 01:57:54;;;;;;;7.82;6.40;;;;;;;21.38;44.99;95416.19;5025456;28;20075;-63
2022/10/23 02:00:20;;;;;;;7.10;6.25;;;;;;;21.65;45.02;95456.38;5059407;28;20036;-62
2022/10/23 02:02:46;;;;;;;8.23;6.47;;;;;;;21.47;45.12;95440.47;5041014;28;20075;-64
2022/10/23 02:05:16;;;;;;;8.32;6.78;;;;;;;21.64;45.15;95465.75;5026135;28;20037;-63
2022/10/23 02:07:41;;;;;;;8.07;6.72;;;;;;;21.64;44.99;95465.75;5024983;28;20040;-64
2022/10/23 02:10:07;;;;;;;7.28;6.43;;;;;;;21.64;44.99;95476.59;5043120;28;20047;-62
2022/10/23 02:12:52;;;;;;;7.85;6.50;;;;;;;21.63;45.00;95475.13;5024609;28;20048;-64
2022/10/23 02:15:23;;;;;;;7.45;6.35;;;;;;;21.63;45.02;95480.56;5064101;28;20052;-64
2022/10/23 02:18:06;;;;;;;7.35;6.18;;;;;;;21.59;45.03;95475.34;5050029;28;20071;-63
2022/10/23 02:20:37;;;;;;;8.27;6.05;;;;;;;21.30;44.94;95436.88;5028862;28;20041;-63
2022/10/23 02:23:24;;;;;;;9.95;7.07;;;;;;;21.61;45.04;95489.22;5066298;28;20040;-64
2022/10/23 02:25:56;;;;;;;7.28;6.47;;;;;;;21.61;45.05;95493.88;5025524;28;20043;-61
2022/10/23 02:28:27;;;;;;;7.07;6.28;;;;;;;21.46;44.92;95471.56;5063225;28;20048;-64
2022/10/23 02:30:53;;;;;;;8.32;6.95;;;;;;;20.25;44.92;95295.50;5061731;28;20040;-63
2022/10/23 02:33:18;;;;;;;8.20;6.68;;;;;;;21.61;45.02;95502.03;5044886;28;20118;-65
2022/10/23 02:35:45;;;;;;;8.27;6.65;;;;;;;20.67;44.93;95366.06;5061416;28;20056;-64
2022/10/23 02:38:32;;;;;;;9.10;6.93;;;;;;;21.61;45.19;95510.19;5044984;28;20289;-65
2022/10/23 02:41:10;;;;;;;8.30;6.60;;;;;;;21.60;44.91;95503.28;5044132;28;20056;-63
2022/10/23 02:44:01;;;;;;;8.02;6.55;;;;;;;21.60;45.00;95489.69;5062900;28;20036;-63
2022/10/23 02:46:40;;;;;;;8.60;7.13;;;;;;;21.60;45.11;95495.13;5038605;28;20071;-64
2022/10/23 02:49:07;;;;;;;8.52;6.68;;;;;;;21.61;45.05;95496.59;5063296;28;20119;-65
2022/10/23 02:52:01;;;;;;;9.00;7.00;;;;;;;21.60;45.09;95508.72;5044225;28;20045;-63
2022/10/23 02:54:46;;;;;;;7.97;7.18;;;;;;;21.59;45.12;95494.38;5056464;28;20065;-63
2022/10/23 02:57:20;;;;;;;8.35;6.55;;;;;;;19.24;44.84;95138.47;5062538;28;20071;-64
2022/10/23 02:59:51;;;;;;;7.85;6.40;;;;;;;21.60;45.01;95489.69;5062418;28;20070;-62
2022/10/23 03:02:37;;;;;;;7.57;6.45;;;;;;;21.59;45.11;95499.81;5061257;28;20086;-64
2022/10/23 03:05:03;;;;;;;7.78;6.68;;;;;;;21.59;45.21;95528.97;5062287;28;20040;-65
2022/10/23 03:07:28;;;;;;;7.82;6.70;;;;;;;21.44;45.08;95531.06;5043875;28;20036;-65
2022/10/23 03:09:54;;;;;;;8.63;6.80;;;;;;;21.59;45.04;95512.66;5063215;28;20118;-64
2022/10/23 03:12:19;;;;;;;7.97;6.85;;;;;;;21.48;45.09;95490.88;5043519;28;20036;-64
2022/10/23 03:14:45;;;;;;;7.70;6.88;;;;;;;21.49;45.01;95492.34;5044649;28;21301;-64
2022/10/23 03:17:10;;;;;;;7.85;6.20;;;;;;;21.57;45.16;95510.44;5062207;28;20044;-64
2022/10/23 03:19:36;;;;;;;10.25;7.00;;;;;;;21.57;45.07;95513.16;5062567;28;20482;-63
2022/10/23 03:22:01;;;;;;;8.30;7.00;;;;;;;20.29;45.04;95316.97;5061741;28;20028;-66
2022/10/23 03:24:26;;;;;;;8.45;6.75;;;;;;;21.58;45.08;95511.94;5061387;28;20052;-64
2022/10/23 03:26:52;;;;;;;8.30;6.78;;;;;;;21.57;45.11;95517.84;5062037;28;20040;-64
2022/10/23 03:29:17;;;;;;;8.32;6.78;;;;;;;21.58;45.15;95519.31;5044100;28;20074;-65
2022/10/23 03:31:43;;;;;;;9.40;6.80;;;;;;;21.56;45.13;95521.78;5042909;28;20038;-64
2022/10/23 03:34:09;;;;;;;7.85;6.88;;;;;;;21.51;45.07;95517.81;5062268;28;20040;-64
2022/10/23 03:36:35;;;;;;;9.05;6.97;;;;;;;21.58;45.20;95530.19;5061458;28;20317;-64
2022/10/23 03:39:00;;;;;;;8.05;6.63;;;;;;;21.56;45.40;95525.22;5062365;28;20110;-64
2022/10/23 03:41:26;;;;;;;8.13;6.70;;;;;;;21.46;45.18;95518.53;5060022;28;20044;-65
2022/10/23 03:43:51;;;;;;;8.45;7.13;;;;;;;21.57;44.97;95536.88;5057092;28;20048;-65
2022/10/23 03:46:17;;;;;;;8.20;6.85;;;;;;;21.57;45.14;95534.88;5059294;28;20041;-64
2022/10/23 03:48:42;;;;;;;7.78;6.95;;;;;;;20.84;45.05;95421.28;5062384;28;20032;-64
2022/10/23 03:51:08;;;;;;;7.43;6.50;;;;;;;18.55;44.88;95077.75;5061586;28;20421;-65
2022/10/23 03:53:33;;;;;;;8.07;6.85;;;;;;;21.48;45.15;95521.47;5056064;28;20051;-65
2022/10/23 03:55:59;;;;;;;8.50;6.78;;;;;;;21.34;45.10;95508.00;5043881;28;20106;-63
2022/10/23 03:58:24;;;;;;;8.85;6.82;;;;;;;20.54;45.12;95387.44;5064969;28;20060;-62
2022/10/23 04:00:49;;;;;;;7.40;6.60;;;;;;;21.24;45.25;95504.00;5059824;28;20401;-63
2022/10/23 04:03:15;;;;;;;7.72;6.93;;;;;;;21.55;45.22;95552.88;5036092;28;20056;-62
2022/10/23 04:05:41;;;;;;;8.65;6.53;;;;;;;21.55;45.17;95556.38;5022744;28;20122;-63
2022/10/23 04:08:06;;;;;;;8.95;6.97;;;;;;;21.55;45.14;95558.31;5043005;28;20075;-63
2022/10/23 04:10:32;;;;;;;7.25;6.40;;;;;;;21.54;45.19;95549.44;5059744;28;20063;-64
2022/10/23 04:12:57;;;;;;;8.85;7.13;;;;;;;21.53;45.28;95542.50;5029060;28;20094;-64
2022/10/23 04:15:22;;;;;;;7.93;6.63;;;;;;;21.53;45.10;95542.50;5037375;28;20459;-63
2022/10/23 04:17:48;;;;;;;8.07;6.70;;;;;;;19.14;44.89;95183.13;5031017;28;20044;-64
2022/10/23 04:20:13;;;;;;;8.45;6.75;;;;;;;21.54;45.16;95548.69;5042653;28;20043;-64
2022/10/23 04:22:39;;;;;;;8.02;6.18;;;;;;;21.52;45.30;95535.59;5037907;28;20045;-63
2022/10/23 04:25:04;;;;;;;7.75;6.53;;;;;;;21.26;45.27;95496.09;5045886;28;20037;-64
2022/10/23 04:27:30;;;;;;;8.65;7.18;;;;;;;21.51;45.27;95544.97;5047367;28;20033;-63
2022/10/23 04:29:55;;;;;;;8.00;6.75;;;;;;;21.51;45.20;95555.84;5039478;28;20041;-64
2022/10/23 04:32:21;;;;;;;9.18;6.97;;;;;;;21.52;45.22;95562.00;5039797;28;20048;-63
2022/10/23 04:34:46;;;;;;;7.85;6.65;;;;;;;21.64;44.76;95547.28;5031744;28;20045;-64
2022/10/23 04:37:12;;;;;;;8.45;6.90;;;;;;;21.79;44.81;95542.41;5032520;28;20424;-65
2022/10/23 04:39:37;;;;;;;8.25;6.50;;;;;;;20.46;44.73;95353.84;5022418;28;20671;-66
2022/10/23 04:42:03;;;;;;;7.53;6.38;;;;;;;21.90;44.79;95547.91;5038631;28;20041;-64
2022/10/23 04:44:28;;;;;;;9.02;6.50;;;;;;;20.68;44.58;95348.59;5040076;28;20043;-66
2022/10/23 04:46:54;;;;;;;7.47;6.57;;;;;;;22.14;44.39;95574.25;5039018;28;20100;-65
2022/10/23 04:49:19;;;;;;;7.15;6.28;;;;;;;22.08;44.05;95516.38;5039733;28;20021;-64
2022/10/23 04:51:45;;;;;;;8.23;6.50;;;;;;;22.23;44.20;95533.28;5005539;28;20508;-62
2022/10/23 04:54:10;;;;;;;7.25;6.32;;;;;;;22.44;44.07;95540.03;5020746;28;20656;-63
2022/10/23 04:56:36;;;;;;;7.88;5.95;;;;;;;22.47;43.98;95552.66;5031750;28;20049;-61
2022/10/23 04:59:01;;;;;;;7.50;5.95;;;;;;;22.66;43.89;95553.69;5039017;28;20068;-64
2022/10/23 05:01:26;;;;;;;6.97;5.88;;;;;;;22.69;43.58;95575.25;5038368;28;20041;-68
2022/10/23 05:03:52;;;;;;;8.00;5.88;;;;;;;22.67;43.42;95549.75;5038669;28;20044;-66
2022/10/23 05:06:18;;;;;;;7.30;5.65;;;;;;;22.49;43.57;95561.81;5038022;28;20052;-62
2022/10/23 05:08:44;;;;;;;7.38;5.35;;;;;;;22.68;43.51;95545.78;5020726;28;20029;-66
2022/10/23 05:11:10;;;;;;;7.53;5.57;;;;;;;22.81;43.65;95565.13;5020780;28;20067;-64
2022/10/23 05:13:36;;;;;;;7.85;6.38;;;;;;;21.28;43.06;95308.94;5009309;28;20044;-62
2022/10/23 05:16:01;;;;;;;6.55;5.78;;;;;;;23.08;43.13;95574.13;5041409;28;20029;-65
2022/10/23 05:18:39;;;;;;;7.85;6.30;;;;;;;23.14;42.64;95577.59;5042620;28;20037;-65
2022/10/23 05:21:31;;;;;;;6.95;5.75;;;;;;;23.06;42.98;95562.97;5021706;28;20044;-62
2022/10/23 05:23:57;;;;;;;6.55;5.40;;;;;;;23.34;42.38;95574.63;5022136;28;20140;-64
2022/10/23 05:26:22;;;;;;;7.72;5.80;;;;;;;23.56;42.49;95569.19;5022398;28;20041;-63
2022/10/23 05:28:48;;;;;;;7.18;5.57;;;;;;;23.65;42.32;95601.69;5041028;28;20048;-64
2022/10/23 05:31:13;;;;;;;7.75;6.22;;;;;;;23.51;42.03;95583.53;5056101;28;20360;-59
2022/10/23 05:33:39;;;;;;;7.10;5.85;;;;;;;22.06;42.40;95376.66;5052679;28;20033;-62
2022/10/23 05:36:06;;;;;;;6.75;5.57;;;;;;;23.58;41.87;95594.69;5060821;28;20045;-61
2022/10/23 05:38:32;;;;;;;6.75;5.55;;;;;;;23.66;41.95;95600.41;5012279;28;20051;-61
2022/10/23 05:40:57;;;;;;;6.88;5.90;;;;;;;23.71;41.49;95592.25;5039969;28;20119;-62
2022/10/23 05:43:24;;;;;;;7.35;5.63;;;;;;;23.65;41.69;95593.50;5053538;28;20033;-61
2022/10/23 05:45:50;;;;;;;6.75;5.65;;;;;;;23.67;42.28;95607.38;5039350;28;20031;-62
2022/10/23 05:48:16;;;;;;;7.60;5.78;;;;;;;23.79;41.61;95608.84;5003707;28;20525;-62
2022/10/23 05:50:41;;;;;;;6.68;5.88;;;;;;;23.44;41.37;95545.91;5036897;28;20049;-61
2022/10/23 05:53:09;;;;;;;6.10;5.32;;;;;;;23.88;41.25;95617.50;5036726;28;20471;-63
2022/10/23 05:55:34;;;;;;;7.57;5.35;;;;;;;23.96;41.38;95619.25;5001886;28;20052;-61
2022/10/23 05:58:03;;;;;;;9.65;5.43;;;;;;;22.96;41.32;95488.19;5020679;28;20033;-61
2022/10/23 06:00:28;;;;;;;7.10;5.45;;;;;;;23.75;41.05;95581.06;5038532;28;20385;-64
2022/10/23 06:02:54;;;;;;;5.85;5.13;;;;;;;24.13;41.10;95639.06;5035583;28;20053;-62
2022/10/23 06:05:19;;;;;;;8.63;5.63;;;;;;;24.31;40.81;95638.53;5051164;28;20454;-63
2022/10/23 06:07:45;;;;;;;6.30;5.05;;;;;;;24.04;40.94;95625.69;5038152;28;20094;-66
2022/10/23 06:10:10;;;;;;;6.80;5.88;;;;;;;23.04;40.95;95470.09;5037055;28;20161;-65
2022/10/23 06:12:36;;;;;;;6.07;5.10;;;;;;;24.09;41.04;95643.28;5037566;28;20048;-64
2022/10/23 06:15:01;;;;;;;6.43;5.47;;;;;;;22.88;41.02;95442.09;5036963;28;20813;-63
2022/10/23 06:17:27;;;;;;;5.63;5.13;;;;;;;24.16;40.72;95659.16;5029373;28;20505;-64
2022/10/23 06:19:59;;;;;;;6.10;5.00;;;;;;;24.33;40.62;95660.63;5036544;28;20040;-65
2022/10/23 06:22:25;;;;;;;6.40;5.07;;;;;;;24.43;40.54;95650.94;5030958;28;20040;-62
2022/10/23 06:24:51;;;;;;;5.70;5.20;;;;;;;24.39;40.77;95661.34;5036437;28;20128;-62
2022/10/23 06:27:16;;;;;;;5.95;5.13;;;;;;;24.27;40.45;95648.22;5036260;28;20576;-63
2022/10/23 06:29:42;;;;;;;5.97;5.20;;;;;;;23.68;40.39;95532.50;5035174;28;20057;-65
2022/10/23 06:32:07;;;;;;;6.72;5.30;;;;;;;24.33;40.63;95657.91;5036365;28;20488;-62
2022/10/23 06:34:32;;;;;;;6.13;5.28;;;;;;;24.22;40.70;95657.91;5038422;28;20456;-66
2022/10/23 06:36:58;;;;;;;5.85;5.00;;;;;;;24.29;40.78;95667.56;5039799;28;20072;-63
2022/10/23 06:39:23;;;;;;;7.93;4.93;;;;;;;24.61;40.54;95655.84;5038960;28;20064;-64
2022/10/23 06:41:49;;;;;;;6.35;5.07;;;;;;;24.56;40.42;95653.88;5039085;28;20036;-62
2022/10/23 06:44:14;;;;;;;5.80;4.97;;;;;;;24.50;40.17;95666.81;5051912;28;20081;-64
2022/10/23 06:46:40;;;;;;;6.00;5.03;;;;;;;24.43;40.22;95664.59;5052126;28;20055;-63
2022/10/23 06:49:05;;;;;;;7.57;5.13;;;;;;;22.54;39.85;95394.31;5058378;28;20016;-63
2022/10/23 06:51:31;;;;;;;5.53;4.40;;;;;;;23.15;40.33;95489.19;5057714;28;20045;-64
2022/10/23 06:53:56;;;;;;;6.22;5.07;;;;;;;23.20;40.70;95526.56;5046096;28;20064;-62
2022/10/23 06:56:21;;;;;;;8.52;5.45;;;;;;;24.21;40.48;95678.25;5035498;28;20041;-64
2022/10/23 06:58:47;;;;;;;6.53;5.53;;;;;;;24.36;40.58;95678.75;5038815;28;20059;-62
2022/10/23 07:01:12;;;;;;;6.25;4.93;;;;;;;24.29;40.49;95684.69;5039575;28;20040;-63
2022/10/23 07:03:38;;;;;;;7.45;5.10;;;;;;;24.32;40.74;95675.50;5039353;28;20045;-63
2022/10/23 07:06:05;;;;;;;7.47;5.28;;;;;;;24.39;40.61;95686.69;5023273;28;20067;-62
2022/10/23 07:08:30;;;;;;;7.88;5.40;;;;;;;24.37;40.60;95696.63;5021854;28;20058;-65
2022/10/23 07:10:56;;;;;;;5.72;4.70;;;;;;;24.29;40.59;95679.25;5057725;28;20041;-62
2022/10/23 07:13:23;;;;;;;5.95;4.70;;;;;;;24.51;40.21;95679.19;5059514;28;20107;-65
2022/10/23 07:15:49;;;;;;;6.80;4.97;;;;;;;24.09;40.36;95649.47;5028287;28;20025;-64
2022/10/23 07:18:15;;;;;;;5.72;4.80;;;;;;;24.02;40.70;95671.81;5027038;28;20556;-63
2022/10/23 07:20:41;;;;;;;6.28;5.25;;;;;;;24.32;40.55;95689.16;5057418;28;20045;-63
2022/10/23 07:23:06;;;;;;;5.75;4.88;;;;;;;24.37;40.58;95680.22;5059516;28;20789;-64
2022/10/23 07:25:32;;;;;;;5.88;4.85;;;;;;;24.30;40.66;95675.25;5037042;28;20025;-64
2022/10/23 07:27:58;;;;;;;7.63;4.85;;;;;;;24.33;40.56;95674.28;5059173;28;20028;-63
2022/10/23 07:30:23;;;;;;;5.70;4.72;;;;;;;24.11;40.72;95657.94;5032980;28;20085;-64
2022/10/23 07:32:49;;;;;;;5.63;4.53;;;;;;;22.95;40.48;95488.69;5024438;28;20060;-63
2022/10/23 07:35:14;;;;;;;6.22;4.80;;;;;;;22.91;40.58;95466.34;5024313;28;20207;-61
2022/10/23 07:37:39;;;;;;;6.38;4.95;;;;;;;24.35;40.69;95669.09;5040659;28;20052;-61
2022/10/23 07:40:05;;;;;;;6.35;4.70;;;;;;;23.08;40.25;95495.13;5041407;28;20029;-62
2022/10/23 07:42:31;;;;;;;5.97;4.70;;;;;;;24.18;41.00;95656.66;5005651;28;20665;-60
2022/10/23 07:44:56;;;;;;;5.72;4.70;;;;;;;24.34;40.59;95651.22;5042055;28;20198;-60
2022/10/23 07:47:22;;;;;;;6.07;4.28;;;;;;;24.30;40.54;95664.31;5017256;28;20533;-62
2022/10/23 07:49:47;;;;;;;5.78;4.55;;;;;;;24.22;40.61;95679.72;5050722;28;20714;-61
2022/10/23 07:52:13;;;;;;;5.28;4.70;;;;;;;24.26;40.38;95701.31;5046772;28;20044;-64
2022/10/23 07:54:38;;;;;;;6.57;4.60;;;;;;;24.27;40.68;95675.50;5029662;28;20056;-63
2022/10/23 07:57:06;;;;;;;6.75;4.70;;;;;;;24.28;40.50;95683.19;5040829;28;20049;-62
2022/10/23 07:59:32;;;;;;;6.90;5.07;;;;;;;24.39;40.07;95672.28;5023222;28;20128;-63
2022/10/23 08:01:57;;;;;;;6.40;4.97;;;;;;;24.22;40.53;95685.19;5021368;28;20060;-62
2022/10/23 08:04:23;;;;;;;5.65;4.68;;;;;;;24.16;40.29;95659.91;5041160;28;20041;-64
2022/10/23 08:06:49;;;;;;;5.30;4.45;;;;;;;24.39;40.06;95666.81;5010802;28;20099;-62
2022/10/23 08:09:14;;;;;;;5.97;4.50;;;;;;;22.14;39.81;95339.63;5019084;28;20525;-63
2022/10/23 08:11:40;;;;;;;4.78;4.20;;;;;;;22.07;40.03;95362.56;5043035;28;20114;-65
2022/10/23 08:14:05;;;;;;;6.72;4.90;;;;;;;24.36;39.86;95678.75;5057053;28;20044;-65
2022/10/23 08:16:31;;;;;;;5.47;4.68;;;;;;;23.27;39.94;95512.44;5040227;28;20120;-63
2022/10/23 08:18:57;;;;;;;5.70;4.50;;;;;;;24.02;39.83;95644.53;5007337;28;20123;-64
2022/10/23 08:21:22;;;;;;;5.45;4.53;;;;;;;24.46;40.36;95677.25;5039754;28;20045;-64
2022/10/23 08:23:48;;;;;;;7.20;4.90;;;;;;;24.37;40.22;95702.06;5041664;28;20187;-63
2022/10/23 08:26:13;;;;;;;5.28;4.28;;;;;;;24.36;40.43;95667.81;5036642;28;20036;-63
2022/10/23 08:28:39;;;;;;;5.35;4.45;;;;;;;23.17;40.12;95478.53;5018510;28;20041;-65
2022/10/23 08:31:14;;;;;;;7.10;4.82;;;;;;;24.38;40.19;95670.81;5041943;28;20445;-65
2022/10/23 08:33:40;;;;;;;6.75;4.50;;;;;;;24.47;40.17;95678.72;5040784;28;20076;-66
2022/10/23 08:36:13;;;;;;;5.82;4.78;;;;;;;24.57;40.01;95679.94;5041242;28;20083;-67
2022/10/23 08:38:39;;;;;;;6.65;4.32;;;;;;;24.35;39.94;95693.66;5005787;28;20040;-67
2022/10/23 08:41:04;;;;;;;5.03;3.90;;;;;;;24.35;40.27;95682.72;5032323;28;20409;-64
2022/10/23 08:43:42;;;;;;;5.47;4.10;;;;;;;22.19;39.50;95336.88;5041582;28;20504;-67
2022/10/23 08:46:10;;;;;;;5.88;4.68;;;;;;;24.30;40.10;95697.09;5024664;28;20025;-65
2022/10/23 08:48:42;;;;;;;5.70;4.13;;;;;;;24.36;40.02;95676.00;5039199;28;20052;-66
2022/10/23 08:51:15;;;;;;;5.82;4.25;;;;;;;23.65;40.02;95582.59;5023103;28;20099;-62
2022/10/23 08:53:50;;;;;;;5.85;4.70;;;;;;;24.36;40.03;95673.28;5055047;28;20036;-63
2022/10/23 08:56:40;;;;;;;5.75;4.32;;;;;;;24.51;39.52;95665.56;5039431;28;20040;-63
2022/10/23 08:59:08;;;;;;;;;;;;;;;24.36;40.25;95673.28;5039120;28;20063;-63
2022/10/23 09:01:39;;;;;;;5.47;3.92;;;;;;;24.32;40.13;95664.59;5040282;28;19932;-63
2022/10/23 09:04:05;;;;;;;4.78;3.88;;;;;;;24.41;39.61;95669.81;5039841;28;20029;-61
2022/10/23 09:06:52;;;;;;;7.15;4.38;;;;;;;24.24;40.23;95682.69;5022063;28;20037;-62
2022/10/23 09:09:24;;;;;;;5.57;4.32;;;;;;;24.43;39.84;95659.84;5039988;28;20048;-63
2022/10/23 09:12:04;;;;;;;5.18;4.10;;;;;;;24.30;40.01;95669.78;5054956;28;20385;-63
2022/10/23 09:14:35;;;;;;;;;;;;;;;24.52;40.03;95675.25;5041045;28;20044;-62
2022/10/23 09:17:00;;;;;;;6.63;4.45;;;;;;;24.53;39.59;95671.28;5033869;28;19925;-62
2022/10/23 09:19:26;;;;;;;5.80;4.22;;;;;;;24.45;40.35;95664.81;5040619;28;20047;-63
2022/10/23 09:21:52;;;;;;;5.13;3.50;;;;;;;22.93;39.89;95448.31;5038353;28;20068;-61
2022/10/23 09:24:19;;;;;;;5.00;4.10;;;;;;;23.97;40.43;95609.81;5021910;28;20115;-62
2022/10/23 09:26:49;;;;;;;4.32;3.70;;;;;;;24.50;39.80;95661.34;5037844;28;20048;-61
2022/10/23 09:29:34;;;;;;;5.20;4.07;;;;;;;24.63;39.94;95664.28;5008542;28;20041;-63
2022/10/23 09:32:02;;;;;;;5.43;3.92;;;;;;;24.74;39.45;95670.44;5045527;28;20715;-61
2022/10/23 09:34:29;;;;;;;5.32;3.88;;;;;;;24.56;39.21;95629.31;5035913;28;20051;-62
2022/10/23 09:36:57;;;;;;;5.97;3.58;;;;;;;24.95;39.29;95645.00;5039836;28;20036;-62
2022/10/23 09:39:27;;;;;;;6.38;3.60;;;;;;;24.44;40.02;95646.97;5040203;28;20363;-64
2022/10/23 09:41:52;;;;;;;;;;;;;;;24.25;40.49;95651.44;5055910;28;20197;-65
2022/10/23 09:44:26;;;;;;;4.53;3.80;;;;;;;24.27;40.53;95659.88;5042204;28;20038;-63
2022/10/23 09:46:58;;;;;;;7.70;3.35;;;;;;;24.37;40.27;95666.59;5037878;28;20052;-61
2022/10/23 09:49:30;;;;;;;5.35;3.20;;;;;;;24.37;40.50;95688.44;5005715;28;20099;-63
2022/10/23 09:52:31;;;;;;;5.07;3.33;;;;;;;24.11;40.13;95630.63;5040105;28;20052;-61
2022/10/23 09:55:01;;;;;;;4.65;3.33;;;;;;;24.40;39.96;95651.94;5022102;28;20049;-65
2022/10/23 09:57:26;;;;;;;;;;;;;;;24.50;39.86;95650.44;5011647;23;20041;-64
2022/10/23 09:59:52;;;;;;;4.77;2.97;;;;;;;24.34;40.53;95659.41;5006835;28;19928;-64
2022/10/23 10:02:32;;;;;;;5.30;2.92;;;;;;;24.35;40.26;95649.97;5014458;28;20289;-65
2022/10/23 10:04:57;;;;;;;5.70;3.22;;;;;;;24.44;40.15;95647.69;5019534;28;20057;-71
2022/10/23 10:07:25;;;;;;;4.85;3.15;;;;;;;23.86;39.77;95538.91;5015281;28;20068;-64
2022/10/23 10:09:54;;;;;;;6.75;3.15;;;;;;;24.55;39.66;95646.94;5020872;28;20117;-63
2022/10/23 10:12:30;;;;;;;5.63;2.90;;;;;;;23.71;39.99;95510.44;5020170;28;20053;-61
2022/10/23 10:15:08;;;;;;;4.15;2.88;;;;;;;24.68;39.67;95641.66;5015429;28;20053;-66
2022/10/23 10:18:01;;;;;;;3.88;2.58;;;;;;;23.76;39.01;95500.75;5050876;22;20041;-63
2022/10/23 10:20:45;;;;;;;5.55;2.85;;;;;;;24.88;38.92;95631.88;5041217;28;20068;-65
2022/10/23 10:23:22;;;;;;;4.43;2.88;;;;;;;24.79;39.13;95638.91;5057794;28;20055;-65
2022/10/23 10:25:51;;;;;;;3.20;2.63;;;;;;;24.46;39.08;95581.69;5027879;28;20327;-63
2022/10/23 10:28:47;;;;;;;3.35;2.45;;;;;;;24.00;38.32;95499.69;5059469;28;20037;-64
2022/10/23 10:31:15;;;;;;;4.47;2.45;;;;;;;24.44;39.12;95570.53;5044337;28;20039;-63
2022/10/23 10:33:59;;;;;;;3.20;2.42;;;;;;;24.79;39.05;95652.56;5060087;28;20051;-63
2022/10/23 10:36:54;;;;;;;4.38;2.35;;;;;;;24.81;38.90;95609.06;5059386;28;20049;-64
2022/10/23 10:39:57;;;;;;;3.97;2.17;;;;;;;24.78;38.63;95615.53;4977200;28;20062;-63
2022/10/23 10:43:01;;;;;;;2.72;2.10;;;;;;;24.89;38.46;95595.13;5053233;28;20052;-65
2022/10/23 10:45:33;;;;;;;3.50;2.28;;;;;;;24.17;37.98;95484.00;4963300;28;20518;-62
2022/10/23 10:48:07;;;;;;;3.25;2.20;;;;;;;24.64;38.12;95578.38;5010084;28;20052;-64
2022/10/23 10:50:42;;;;;;;3.55;1.83;;;;;;;24.93;37.97;95612.00;5027716;28;20132;-63
2022/10/23 10:53:27;;;;;;;3.53;1.90;;;;;;;24.01;38.29;95490.25;5045280;28;20167;-62
2022/10/23 10:55:54;;;;;;;3.40;2.30;;;;;;;23.71;38.00;95427.91;5044848;28;20436;-66
2022/10/23 10:58:23;;;;;;;3.70;1.58;;;;;;;24.88;37.91;95598.34;5028174;28;20028;-64
2022/10/23 11:00:52;;;;;;;2.78;2.03;;;;;;;24.69;37.85;95572.13;5044760;28;20417;-62
2022/10/23 11:03:28;;;;;;;2.90;1.90;;;;;;;24.76;38.13;95607.84;5044756;28;20401;-63
2022/10/23 11:05:54;;;;;;;3.45;1.73;;;;;;;24.62;37.81;95597.22;5044371;28;20108;-64
2022/10/23 11:08:38;;;;;;;6.15;1.92;;;;;;;23.83;37.53;95457.34;5062846;28;20527;-60
2022/10/23 11:11:14;;;;;;;2.95;1.70;;;;;;;24.91;37.72;95603.53;5062201;28;20047;-67
2022/10/23 11:13:41;;;;;;;3.55;1.70;;;;;;;24.75;37.48;95556.47;5056045;28;20454;-63
2022/10/23 11:16:25;;;;;;;2.60;1.88;;;;;;;24.93;37.38;95581.94;5037615;28;20051;-64
2022/10/23 11:19:21;;;;;;;3.20;2.00;;;;;;;24.29;37.58;95482.72;5045718;28;20094;-62
2022/10/23 11:22:05;;;;;;;4.82;1.90;;;;;;;25.11;37.52;95583.34;5031173;28;20083;-63
2022/10/23 11:25:03;;;;;;;2.40;1.85;;;;;;;24.45;37.65;95522.84;5047026;28;20066;-63
2022/10/23 11:28:00;;;;;;;4.00;1.77;;;;;;;25.11;37.33;95573.16;5060544;28;20047;-63
2022/10/23 11:30:54;;;;;;;3.63;1.88;;;;;;;25.11;37.33;95562.22;5032504;28;20057;-61
2022/10/23 11:33:59;;;;;;;4.00;2.03;;;;;;;25.16;37.23;95558.72;5038468;28;20520;-65
2022/10/23 11:36:50;;;;;;;2.78;1.75;;;;;;;25.16;36.84;95564.19;5018603;28;20049;-63
2022/10/23 11:39:25;;;;;;;3.47;2.00;;;;;;;25.18;36.85;95556.19;5034987;28;20448;-60
2022/10/23 11:41:55;;;;;;;2.63;1.88;;;;;;;25.09;37.09;95545.59;5041239;28;20587;-64
2022/10/23 11:44:24;;;;;;;3.70;1.60;;;;;;;25.01;37.25;95544.66;5044111;28;20118;-64
2022/10/23 11:46:59;;;;;;;2.70;1.83;;;;;;;25.21;36.89;95533.31;5011996;28;20045;-63